Time;durP1;ratioP1;P1;durP2;ratioP2;P2;SDS_P1;SDS_P2;PMS_P1;PMS_P2;Temp;Humidity;BMP_temperature;BMP_pressure;BME280_temperature;BME280_humidity;BME280_pressure;Samples;Min_cycle;Max_cycle;Signal;HPM_P1;HPM_P2
2022/04/15 00:00:39;;;;;;;187.85;16.52;;;;;;;;;;4990539;28;20053;-60
2022/04/15 00:03:06;;;;;;;46.38;10.75;;;;;;;;;;4978642;28;20030;-60
2022/04/15 00:05:40;;;;;;;42.00;10.10;;;;;;;;;;4984024;28;20022;-60
2022/04/15 00:08:06;;;;;;;55.85;10.63;;;;;;;;;;4979504;28;20106;-61
2022/04/15 00:10:33;;;;;;;35.47;10.88;;;;;;;;;;4988865;28;20031;-60
2022/04/15 00:13:00;;;;;;;41.65;11.02;;;;;;;;;;4977371;28;20117;-61
2022/04/15 00:15:27;;;;;;;79.70;12.82;;;;;;;;;;4985208;28;20096;-60
2022/04/15 00:17:54;;;;;;;76.55;11.10;;;;;;;;;;4984430;28;20034;-60
2022/04/15 00:20:20;;;;;;;84.93;11.35;;;;;;;;;;4978069;28;20038;-60
2022/04/15 00:22:46;;;;;;;54.55;9.40;;;;;;;;;;4989022;28;20038;-61
2022/04/15 00:25:13;;;;;;;97.55;11.63;;;;;;;;;;4978598;28;20129;-60
2022/04/15 00:27:39;;;;;;;75.68;10.82;;;;;;;;;;4983057;28;20039;-60
2022/04/15 00:30:07;;;;;;;42.30;9.98;;;;;;;;;;4985754;28;20035;-60
2022/04/15 00:32:33;;;;;;;30.77;8.82;;;;;;;;;;4976182;28;20031;-60
2022/04/15 00:34:59;;;;;;;29.38;9.00;;;;;;;;;;4988757;28;20046;-61
2022/04/15 00:37:25;;;;;;;43.75;10.48;;;;;;;;;;4980346;28;20042;-60
2022/04/15 00:39:52;;;;;;;37.30;8.93;;;;;;;;;;4981125;28;20026;-60
2022/04/15 00:42:19;;;;;;;62.55;9.20;;;;;;;;;;4987110;28;20034;-61
2022/04/15 00:44:45;;;;;;;30.58;9.25;;;;;;;;;;4975776;28;20110;-60
2022/04/15 00:47:20;;;;;;;25.75;9.40;;;;;;;;;;4986275;28;20069;-60
2022/04/15 00:49:46;;;;;;;22.88;8.98;;;;;;;;;;4982393;28;20026;-60
2022/04/15 00:52:14;;;;;;;24.02;8.40;;;;;;;;;;4979028;28;20054;-60
2022/04/15 00:54:41;;;;;;;26.38;7.90;;;;;;;;;;4988220;28;20130;-60
2022/04/15 00:57:12;;;;;;;21.00;8.38;;;;;;;;;;4976828;28;20090;-60
2022/04/15 00:59:39;;;;;;;18.02;7.90;;;;;;;;;;4983410;28;20027;-61
2022/04/15 01:02:05;;;;;;;25.52;8.35;;;;;;;;;;4984858;28;20027;-60
2022/04/15 01:04:32;;;;;;;29.30;7.80;;;;;;;;;;4976388;28;20039;-60
2022/04/15 01:07:03;;;;;;;68.00;10.88;;;;;;;;;;4977729;28;20019;-60
2022/04/15 01:09:32;;;;;;;26.48;9.30;;;;;;;;;;4984573;28;20023;-60
2022/04/15 01:11:59;;;;;;;59.45;9.98;;;;;;;;;;4983434;28;20033;-60
2022/04/15 01:14:26;;;;;;;116.85;10.98;;;;;;;;;;4976954;28;20512;-60
2022/04/15 01:16:52;;;;;;;55.15;8.80;;;;;;;;;;4988080;28;20037;-61
2022/04/15 01:19:19;;;;;;;40.88;8.82;;;;;;;;;;4978333;28;20026;-60
2022/04/15 01:21:45;;;;;;;34.58;8.82;;;;;;;;;;4982522;28;20018;-61
2022/04/15 01:24:11;;;;;;;32.50;8.25;;;;;;;;;;4984955;28;20416;-60
2022/04/15 01:26:41;;;;;;;27.95;7.05;;;;;;;;;;4975533;28;20027;-60
2022/04/15 01:29:07;;;;;;;44.53;8.00;;;;;;;;;;4976021;28;20033;-60
2022/04/15 01:31:33;;;;;;;52.10;8.43;;;;;;;;;;4984165;28;20019;-61
2022/04/15 01:34:00;;;;;;;23.38;6.90;;;;;;;;;;4972603;28;20114;-61
2022/04/15 01:36:26;;;;;;;30.60;6.95;;;;;;;;;;4990315;28;20046;-60
2022/04/15 01:38:55;;;;;;;41.83;7.78;;;;;;;;;;4990518;28;20036;-60
2022/04/15 01:41:22;;;;;;;80.63;9.25;;;;;;;;;;4986421;28;20027;-60
2022/04/15 01:43:48;;;;;;;42.17;7.20;;;;;;;;;;4991097;28;20030;-60
2022/04/15 01:46:14;;;;;;;38.47;8.35;;;;;;;;;;4991472;28;20026;-61
2022/04/15 01:48:41;;;;;;;31.88;7.18;;;;;;;;;;4990707;28;20081;-60
2022/04/15 01:51:07;;;;;;;35.63;7.88;;;;;;;;;;4989989;28;20843;-60
2022/04/15 01:53:33;;;;;;;46.28;8.05;;;;;;;;;;4990712;28;20076;-60
2022/04/15 01:55:59;;;;;;;23.33;7.32;;;;;;;;;;4990676;28;20047;-60
2022/04/15 01:58:25;;;;;;;24.92;7.13;;;;;;;;;;4976755;28;20034;-60
2022/04/15 02:00:51;;;;;;;24.45;7.45;;;;;;;;;;4971317;28;20131;-60
2022/04/15 02:03:18;;;;;;;41.17;7.50;;;;;;;;;;4972052;28;20420;-61
2022/04/15 02:05:44;;;;;;;23.02;6.85;;;;;;;;;;4971211;28;20113;-61
2022/04/15 02:08:10;;;;;;;61.70;8.18;;;;;;;;;;4971497;28;20038;-61
2022/04/15 02:10:36;;;;;;;32.47;7.03;;;;;;;;;;4976323;28;20030;-60
2022/04/15 02:13:02;;;;;;;48.35;7.20;;;;;;;;;;4990443;28;20030;-60
2022/04/15 02:15:28;;;;;;;54.90;7.40;;;;;;;;;;4990727;28;20018;-60
2022/04/15 02:17:54;;;;;;;28.00;5.95;;;;;;;;;;4990554;28;20035;-60
2022/04/15 02:20:20;;;;;;;13.63;6.00;;;;;;;;;;4977411;28;20023;-61
2022/04/15 02:22:46;;;;;;;19.00;6.03;;;;;;;;;;4987572;28;20027;-60
2022/04/15 02:25:12;;;;;;;29.63;6.00;;;;;;;;;;4990431;28;20026;-60
2022/04/15 02:27:39;;;;;;;26.05;6.78;;;;;;;;;;4990648;28;20034;-60
2022/04/15 02:30:05;;;;;;;18.17;5.38;;;;;;;;;;4979705;28;20026;-61
2022/04/15 02:32:31;;;;;;;35.97;6.88;;;;;;;;;;4971325;28;20050;-60
2022/04/15 02:34:57;;;;;;;51.58;6.68;;;;;;;;;;4977885;28;20034;-61
2022/04/15 02:37:23;;;;;;;27.77;6.00;;;;;;;;;;4971246;28;20031;-61
2022/04/15 02:39:50;;;;;;;42.20;6.47;;;;;;;;;;4971260;28;20143;-61
2022/04/15 02:42:16;;;;;;;36.95;7.18;;;;;;;;;;4990613;28;20080;-60
2022/04/15 02:44:42;;;;;;;31.42;5.88;;;;;;;;;;4990550;28;20344;-60
2022/04/15 02:47:08;;;;;;;32.40;6.88;;;;;;;;;;4986505;28;20055;-61
2022/04/15 02:49:34;;;;;;;28.40;5.93;;;;;;;;;;4970534;28;20023;-60
2022/04/15 02:52:01;;;;;;;41.55;6.15;;;;;;;;;;4971010;28;20027;-60
2022/04/15 02:54:27;;;;;;;48.60;6.82;;;;;;;;;;4970956;28;20034;-60
2022/04/15 02:56:53;;;;;;;31.20;6.38;;;;;;;;;;4970540;28;20381;-60
2022/04/15 02:59:20;;;;;;;25.80;5.93;;;;;;;;;;4975104;28;20026;-60
2022/04/15 03:01:48;;;;;;;43.70;6.82;;;;;;;;;;4985506;28;20121;-63
2022/04/15 03:04:14;;;;;;;34.92;6.10;;;;;;;;;;4978515;28;20495;-60
2022/04/15 03:06:40;;;;;;;53.25;7.43;;;;;;;;;;4973698;28;20034;-61
2022/04/15 03:09:06;;;;;;;27.75;5.97;;;;;;;;;;4986615;28;20121;-60
2022/04/15 03:11:33;;;;;;;21.30;5.90;;;;;;;;;;4975951;28;20030;-60
2022/04/15 03:13:59;;;;;;;58.22;8.23;;;;;;;;;;4980720;28;20022;-60
2022/04/15 03:16:25;;;;;;;54.00;6.28;;;;;;;;;;4983710;28;20037;-60
2022/04/15 03:18:51;;;;;;;47.88;6.55;;;;;;;;;;4973709;28;20046;-60
2022/04/15 03:21:17;;;;;;;35.67;6.13;;;;;;;;;;4986636;28;20039;-61
2022/04/15 03:23:43;;;;;;;24.00;6.25;;;;;;;;;;4977728;28;20109;-60
2022/04/15 03:26:09;;;;;;;25.83;5.55;;;;;;;;;;4979479;28;20039;-61
2022/04/15 03:28:37;;;;;;;55.13;7.05;;;;;;;;;;4984773;28;20027;-60
2022/04/15 03:31:03;;;;;;;27.58;6.05;;;;;;;;;;4973433;28;20031;-61
2022/04/15 03:33:29;;;;;;;60.15;7.03;;;;;;;;;;4984886;28;20098;-61
2022/04/15 03:35:55;;;;;;;24.50;5.63;;;;;;;;;;4978964;28;20503;-60
2022/04/15 03:38:21;;;;;;;32.90;6.88;;;;;;;;;;4982480;28;20035;-60
2022/04/15 03:40:47;;;;;;;40.53;6.20;;;;;;;;;;4974589;28;20035;-61
2022/04/15 03:43:13;;;;;;;26.83;6.03;;;;;;;;;;4986297;28;20589;-60
2022/04/15 03:45:39;;;;;;;34.85;6.57;;;;;;;;;;4976485;28;20034;-61
2022/04/15 03:48:06;;;;;;;28.00;5.35;;;;;;;;;;4979590;28;20027;-61
2022/04/15 03:50:33;;;;;;;58.15;6.93;;;;;;;;;;4983564;28;20038;-60
2022/04/15 03:52:59;;;;;;;35.53;6.57;;;;;;;;;;4973323;28;20388;-61
2022/04/15 03:55:25;;;;;;;52.90;7.50;;;;;;;;;;4985467;28;20549;-60
2022/04/15 03:57:52;;;;;;;28.42;5.65;;;;;;;;;;4977908;28;20091;-60
2022/04/15 04:00:19;;;;;;;47.92;6.78;;;;;;;;;;4972999;28;20057;-61
2022/04/15 04:02:46;;;;;;;25.50;6.05;;;;;;;;;;4984810;28;20035;-60
2022/04/15 04:05:13;;;;;;;23.65;5.20;;;;;;;;;;4973152;28;20080;-60
2022/04/15 04:07:39;;;;;;;45.97;6.20;;;;;;;;;;4983650;28;20114;-61
2022/04/15 04:10:06;;;;;;;31.70;6.15;;;;;;;;;;4979493;28;20026;-60
2022/04/15 04:12:33;;;;;;;97.55;8.65;;;;;;;;;;4976654;28;20027;-61
2022/04/15 04:15:00;;;;;;;114.70;9.10;;;;;;;;;;4985748;28;20041;-61
2022/04/15 04:17:26;;;;;;;44.35;5.85;;;;;;;;;;4973617;28;20106;-60
2022/04/15 04:19:52;;;;;;;57.95;6.68;;;;;;;;;;4981988;28;20085;-60
2022/04/15 04:22:18;;;;;;;45.85;5.95;;;;;;;;;;4980792;28;20037;-60
2022/04/15 04:24:44;;;;;;;127.57;9.80;;;;;;;;;;4978514;28;20031;-61
2022/04/15 04:27:10;;;;;;;65.50;7.38;;;;;;;;;;4989012;28;20038;-61
2022/04/15 04:29:37;;;;;;;42.25;6.90;;;;;;;;;;4987420;28;20026;-60
2022/04/15 04:32:03;;;;;;;68.32;7.45;;;;;;;;;;4978080;28;20034;-60
2022/04/15 04:34:29;;;;;;;38.10;6.07;;;;;;;;;;4985261;28;20027;-61
2022/04/15 04:36:55;;;;;;;55.90;7.25;;;;;;;;;;4990957;28;20031;-60
2022/04/15 04:39:25;;;;;;;39.45;6.10;;;;;;;;;;4988719;28;20038;-61
2022/04/15 04:41:52;;;;;;;43.38;6.30;;;;;;;;;;4979924;28;20288;-61
2022/04/15 04:44:18;;;;;;;18.45;5.10;;;;;;;;;;4981703;28;20035;-60
2022/04/15 04:46:44;;;;;;;44.78;6.05;;;;;;;;;;4986702;28;20490;-60
2022/04/15 04:49:10;;;;;;;57.72;6.50;;;;;;;;;;4975601;28;20042;-60
2022/04/15 04:51:37;;;;;;;71.95;9.55;;;;;;;;;;4987474;28;20029;-60
2022/04/15 04:54:03;;;;;;;39.20;5.65;;;;;;;;;;4981084;28;20030;-60
2022/04/15 04:56:29;;;;;;;38.20;5.57;;;;;;;;;;4980297;28;20047;-60
2022/04/15 04:58:55;;;;;;;49.83;6.10;;;;;;;;;;4988145;28;20038;-61
2022/04/15 05:01:21;;;;;;;51.10;6.13;;;;;;;;;;4981810;28;20023;-60
2022/04/15 05:03:47;;;;;;;153.63;13.15;;;;;;;;;;4991996;28;20022;-60
2022/04/15 05:06:14;;;;;;;66.35;6.25;;;;;;;;;;4981908;28;20403;-61
2022/04/15 05:08:40;;;;;;;29.00;5.50;;;;;;;;;;4987127;28;20106;-60
2022/04/15 05:11:06;;;;;;;63.97;6.78;;;;;;;;;;4979379;28;20018;-60
2022/04/15 05:13:32;;;;;;;59.15;6.80;;;;;;;;;;4980157;28;20480;-60
2022/04/15 05:15:58;;;;;;;52.10;5.93;;;;;;;;;;4974277;28;20031;-60
2022/04/15 05:18:24;;;;;;;49.60;6.45;;;;;;;;;;4988031;28;20018;-61
2022/04/15 05:20:50;;;;;;;67.95;7.95;;;;;;;;;;4978757;28;20156;-60
2022/04/15 05:23:16;;;;;;;73.68;6.97;;;;;;;;;;4982130;28;20460;-60
2022/04/15 05:25:42;;;;;;;63.17;7.43;;;;;;;;;;4985400;28;20053;-60
2022/04/15 05:28:08;;;;;;;42.22;5.38;;;;;;;;;;4975238;28;20034;-61
2022/04/15 05:30:35;;;;;;;26.50;4.68;;;;;;;;;;4987520;28;20507;-60
2022/04/15 05:33:01;;;;;;;33.53;4.90;;;;;;;;;;4979529;28;20018;-60
2022/04/15 05:35:27;;;;;;;37.03;4.93;;;;;;;;;;4980247;28;20027;-61
2022/04/15 05:37:53;;;;;;;22.85;4.53;;;;;;;;;;4986730;28;20049;-61
2022/04/15 05:40:19;;;;;;;45.72;6.25;;;;;;;;;;4974260;28;20043;-60
2022/04/15 05:42:45;;;;;;;25.70;4.65;;;;;;;;;;4977505;28;20022;-60
2022/04/15 05:45:11;;;;;;;28.25;4.88;;;;;;;;;;4982518;28;20450;-60
2022/04/15 05:47:39;;;;;;;32.30;4.80;;;;;;;;;;4983755;28;20041;-60
2022/04/15 05:50:06;;;;;;;36.78;5.07;;;;;;;;;;4975423;28;20119;-60
2022/04/15 05:52:33;;;;;;;37.38;5.50;;;;;;;;;;4982628;28;20096;-60
2022/04/15 05:54:59;;;;;;;58.83;8.00;;;;;;;;;;4975333;28;20027;-61
2022/04/15 05:57:25;;;;;;;20.38;5.60;;;;;;;;;;4971489;28;20035;-61
2022/04/15 05:59:51;;;;;;;66.70;7.70;;;;;;;;;;4976668;28;20037;-60
2022/04/15 06:02:18;;;;;;;38.33;5.70;;;;;;;;;;4984746;28;20026;-60
2022/04/15 06:04:44;;;;;;;50.55;6.38;;;;;;;;;;4979946;28;20033;-60
2022/04/15 06:07:10;;;;;;;168.82;11.27;;;;;;;;;;4983169;28;20057;-60
2022/04/15 06:09:36;;;;;;;37.47;5.95;;;;;;;;;;4981366;28;20448;-61
2022/04/15 06:12:02;;;;;;;130.43;10.73;;;;;;;;;;4986202;28;20049;-61
2022/04/15 06:14:33;;;;;;;93.28;8.07;;;;;;;;;;4986456;28;20030;-61
2022/04/15 06:16:59;;;;;;;43.40;6.00;;;;;;;;;;4982285;28;20046;-61
2022/04/15 06:19:25;;;;;;;75.80;7.65;;;;;;;;;;4981623;28;20058;-61
2022/04/15 06:21:52;;;;;;;46.58;6.40;;;;;;;;;;4989755;28;20031;-60
2022/04/15 06:24:18;;;;;;;50.83;6.40;;;;;;;;;;4988513;28;20046;-61
2022/04/15 06:26:44;;;;;;;68.38;6.40;;;;;;;;;;4978833;28;20517;-62
2022/04/15 06:29:10;;;;;;;78.90;7.40;;;;;;;;;;4982070;28;20018;-61
2022/04/15 06:31:36;;;;;;;43.40;5.68;;;;;;;;;;4976943;28;20034;-60
2022/04/15 06:34:03;;;;;;;47.85;5.72;;;;;;;;;;4984407;28;20042;-61
2022/04/15 06:36:29;;;;;;;32.17;5.25;;;;;;;;;;4972617;28;20050;-61
2022/04/15 06:38:56;;;;;;;18.85;5.20;;;;;;;;;;4982083;28;20101;-61
2022/04/15 06:41:22;;;;;;;41.15;5.45;;;;;;;;;;4970367;28;20465;-60
2022/04/15 06:43:48;;;;;;;25.40;5.13;;;;;;;;;;4979207;28;20038;-61
2022/04/15 06:46:14;;;;;;;9.32;4.40;;;;;;;;;;4978483;28;20031;-60
2022/04/15 06:48:40;;;;;;;9.20;4.00;;;;;;;;;;4986172;28;20034;-61
2022/04/15 06:51:06;;;;;;;20.23;5.05;;;;;;;;;;4983127;28;20019;-61
2022/04/15 06:53:32;;;;;;;11.60;5.00;;;;;;;;;;4978796;28;20026;-61
2022/04/15 06:55:59;;;;;;;20.70;5.57;;;;;;;;;;4981170;28;20125;-61
2022/04/15 06:58:25;;;;;;;7.47;4.30;;;;;;;;;;4977611;28;20122;-61
2022/04/15 07:00:52;;;;;;;12.27;4.82;;;;;;;;;;4978662;28;20027;-62
2022/04/15 07:03:19;;;;;;;22.38;4.65;;;;;;;;;;4977634;28;20019;-62
2022/04/15 07:05:46;;;;;;;18.85;5.00;;;;;;;;;;4976475;28;20038;-61
2022/04/15 07:08:12;;;;;;;14.32;4.63;;;;;;;;;;4976260;28;20043;-62
2022/04/15 07:10:39;;;;;;;11.18;4.32;;;;;;;;;;4974844;28;20520;-61
2022/04/15 07:13:05;;;;;;;8.52;4.10;;;;;;;;;;4970813;28;20026;-61
2022/04/15 07:15:31;;;;;;;9.50;4.72;;;;;;;;;;4972864;28;20101;-62
2022/04/15 07:17:59;;;;;;;7.53;4.25;;;;;;;;;;4979182;28;20030;-62
2022/04/15 07:20:26;;;;;;;13.25;5.57;;;;;;;;;;4971103;28;20113;-62
2022/04/15 07:22:58;;;;;;;5.60;4.35;;;;;;;;;;4970397;28;20022;-62
2022/04/15 07:25:25;;;;;;;;;;;;;;;;;;4979547;28;20065;-62
2022/04/15 07:27:51;;;;;;;16.38;5.28;;;;;;;;;;4986089;28;19999;-62
2022/04/15 07:30:20;;;;;;;9.48;4.80;;;;;;;;;;4978870;28;20464;-62
2022/04/15 07:32:46;;;;;;;9.40;4.25;;;;;;;;;;4969762;28;20031;-62
2022/04/15 07:35:12;;;;;;;8.50;4.40;;;;;;;;;;4975891;28;20058;-61
2022/04/15 07:37:39;;;;;;;8.40;4.43;;;;;;;;;;4974260;28;20066;-61
2022/04/15 07:40:05;;;;;;;8.45;4.32;;;;;;;;;;4987605;28;20059;-62
2022/04/15 07:42:31;;;;;;;7.80;4.60;;;;;;;;;;4974923;28;20027;-62
2022/04/15 07:44:58;;;;;;;7.72;4.40;;;;;;;;;;4985614;28;20030;-62
2022/04/15 07:47:24;;;;;;;12.07;4.82;;;;;;;;;;4982988;28;20538;-61
2022/04/15 07:49:51;;;;;;;6.35;3.90;;;;;;;;;;4976862;28;20037;-61
2022/04/15 07:52:17;;;;;;;6.70;4.35;;;;;;;;;;4976083;28;20482;-61
2022/04/15 07:54:44;;;;;;;5.05;3.97;;;;;;;;;;4981806;28;20034;-61
2022/04/15 07:57:10;;;;;;;6.38;4.25;;;;;;;;;;4975607;28;20051;-61
2022/04/15 07:59:36;;;;;;;4.22;3.60;;;;;;;;;;4977437;28;20037;-61
2022/04/15 08:02:05;;;;;;;6.30;4.13;;;;;;;;;;4981169;28;20027;-62
2022/04/15 08:04:34;;;;;;;5.43;3.75;;;;;;;;;;4983046;28;20110;-62
2022/04/15 08:07:00;;;;;;;5.50;3.47;;;;;;;;;;4988396;28;20456;-61
2022/04/15 08:09:26;;;;;;;6.63;4.35;;;;;;;;;;4980284;28;20031;-61
2022/04/15 08:11:54;;;;;;;4.55;3.65;;;;;;;;;;4976492;28;20377;-61
2022/04/15 08:14:20;;;;;;;6.53;4.38;;;;;;;;;;4985281;28;20451;-61
2022/04/15 08:16:46;;;;;;;5.20;4.00;;;;;;;;;;4982399;28;20403;-61
2022/04/15 08:19:13;;;;;;;5.88;4.25;;;;;;;;;;4974280;28;20043;-62
2022/04/15 08:21:39;;;;;;;6.57;4.03;;;;;;;;;;4991414;28;21459;-62
2022/04/15 08:24:05;;;;;;;5.45;3.80;;;;;;;;;;4975524;28;20053;-62
2022/04/15 08:26:31;;;;;;;4.90;3.72;;;;;;;;;;4977573;28;20077;-62
2022/04/15 08:28:58;;;;;;;6.85;4.30;;;;;;;;;;4985030;28;20031;-62
2022/04/15 08:31:24;;;;;;;5.72;3.97;;;;;;;;;;4973685;28;20397;-62
2022/04/15 08:33:50;;;;;;;5.90;4.00;;;;;;;;;;4978395;28;20041;-62
2022/04/15 08:36:17;;;;;;;7.63;5.07;;;;;;;;;;4984593;28;20019;-63
2022/04/15 08:38:43;;;;;;;6.78;4.95;;;;;;;;;;4982277;28;20096;-62
2022/04/15 08:41:11;;;;;;;6.80;4.60;;;;;;;;;;4978351;28;20077;-62
2022/04/15 08:43:37;;;;;;;7.25;4.80;;;;;;;;;;4984733;28;20026;-61
2022/04/15 08:46:05;;;;;;;10.95;4.80;;;;;;;;;;4984661;28;20038;-61
2022/04/15 08:48:32;;;;;;;6.75;4.57;;;;;;;;;;4981189;28;20461;-61
2022/04/15 08:51:02;;;;;;;6.68;4.97;;;;;;;;;;4975797;28;20069;-64
2022/04/15 08:53:28;;;;;;;12.35;4.95;;;;;;;;;;4974101;28;20442;-61
2022/04/15 08:55:54;;;;;;;5.28;4.40;;;;;;;;;;4972005;28;20051;-62
2022/04/15 08:58:22;;;;;;;8.75;4.80;;;;;;;;;;4985594;28;20084;-61
2022/04/15 09:00:48;;;;;;;5.78;4.55;;;;;;;;;;4983969;28;20027;-61
2022/04/15 09:03:14;;;;;;;6.68;5.07;;;;;;;;;;4980455;28;20518;-62
2022/04/15 09:05:41;;;;;;;8.75;5.13;;;;;;;;;;4974360;28;20015;-62
2022/04/15 09:08:11;;;;;;;7.93;5.57;;;;;;;;;;4984356;28;20039;-62
2022/04/15 09:10:40;;;;;;;8.05;5.25;;;;;;;;;;4977724;28;20035;-61
2022/04/15 09:13:07;;;;;;;6.50;4.43;;;;;;;;;;4988515;28;20037;-61
2022/04/15 09:15:34;;;;;;;7.65;4.10;;;;;;;;;;4974359;28;20064;-61
2022/04/15 09:18:00;;;;;;;5.93;4.30;;;;;;;;;;4971691;28;20038;-61
2022/04/15 09:20:31;;;;;;;4.75;3.58;;;;;;;;;;5011287;28;20078;-61
2022/04/15 09:23:08;;;;;;;4.72;3.90;;;;;;;;;;4985591;28;20050;-61
2022/04/15 09:25:35;;;;;;;5.05;3.42;;;;;;;;;;4980286;28;20030;-61
2022/04/15 09:28:01;;;;;;;3.55;3.22;;;;;;;;;;4982496;28;20083;-61
2022/04/15 09:30:39;;;;;;;4.18;3.33;;;;;;;;;;4980464;28;20167;-61
2022/04/15 09:33:06;;;;;;;4.28;3.20;;;;;;;;;;4979232;28;20031;-61
2022/04/15 09:35:32;;;;;;;5.18;3.50;;;;;;;;;;4979359;28;20140;-61
2022/04/15 09:37:59;;;;;;;5.30;3.60;;;;;;;;;;4982457;28;20026;-61
2022/04/15 09:40:26;;;;;;;3.85;3.42;;;;;;;;;;4986723;28;20080;-61
2022/04/15 09:42:53;;;;;;;5.80;3.83;;;;;;;;;;4973478;28;20038;-61
2022/04/15 09:45:21;;;;;;;5.07;3.22;;;;;;;;;;5007997;28;20469;-61
2022/04/15 09:47:54;;;;;;;5.18;3.63;;;;;;;;;;4980295;28;21288;-62
2022/04/15 09:50:22;;;;;;;3.95;3.28;;;;;;;;;;4974907;28;20058;-62
2022/04/15 09:52:49;;;;;;;4.10;3.53;;;;;;;;;;4976686;28;20028;-63
2022/04/15 09:55:19;;;;;;;5.32;3.58;;;;;;;;;;4979517;28;20038;-61
2022/04/15 09:57:49;;;;;;;7.97;3.47;;;;;;;;;;4979290;28;20088;-62
2022/04/15 10:00:19;;;;;;;7.32;3.63;;;;;;;;;;4975712;28;20045;-62
2022/04/15 10:02:49;;;;;;;5.88;3.95;;;;;;;;;;4975680;28;20031;-61
2022/04/15 10:05:15;;;;;;;5.30;3.70;;;;;;;;;;4975795;28;20370;-61
2022/04/15 10:07:42;;;;;;;7.38;3.90;;;;;;;;;;4974253;28;20038;-62
2022/04/15 10:10:09;;;;;;;6.25;3.70;;;;;;;;;;4975521;28;20022;-62
2022/04/15 10:12:39;;;;;;;4.97;3.42;;;;;;;;;;4974532;28;20080;-62
2022/04/15 10:15:09;;;;;;;3.45;3.00;;;;;;;;;;4971994;28;20585;-61
2022/04/15 10:17:36;;;;;;;5.78;3.60;;;;;;;;;;4971275;28;20076;-61
2022/04/15 10:20:03;;;;;;;3.92;2.70;;;;;;;;;;4970076;28;20018;-61
2022/04/15 10:22:29;;;;;;;2.72;2.42;;;;;;;;;;4969927;28;20377;-62
2022/04/15 10:24:55;;;;;;;6.28;3.03;;;;;;;;;;4970208;28;20050;-62
2022/04/15 10:27:26;;;;;;;4.30;3.10;;;;;;;;;;4972671;28;20070;-61
2022/04/15 10:30:01;;;;;;;4.60;3.03;;;;;;;;;;4972588;28;20030;-62
2022/04/15 10:32:27;;;;;;;4.57;3.50;;;;;;;;;;4972228;28;20023;-61
2022/04/15 10:34:53;;;;;;;4.78;3.35;;;;;;;;;;4970509;28;20034;-61
2022/04/15 10:37:40;;;;;;;4.35;2.90;;;;;;;;;;4969635;28;20035;-62
2022/04/15 10:40:21;;;;;;;6.00;2.40;;;;;;;;;;4969283;28;20460;-61
2022/04/15 10:42:48;;;;;;;3.50;2.58;;;;;;;;;;4973532;28;20035;-61
2022/04/15 10:45:34;;;;;;;6.50;3.00;;;;;;;;;;4969390;28;20027;-61
2022/04/15 10:48:01;;;;;;;3.53;2.83;;;;;;;;;;4968692;28;20019;-61
2022/04/15 10:50:28;;;;;;;3.08;2.60;;;;;;;;;;4973733;28;20072;-62
2022/04/15 10:53:15;;;;;;;3.90;2.70;;;;;;;;;;4971846;28;20019;-61
2022/04/15 10:55:46;;;;;;;5.65;3.05;;;;;;;;;;4970649;28;20049;-61
2022/04/15 10:58:13;;;;;;;3.15;2.45;;;;;;;;;;4975897;28;20089;-61
2022/04/15 11:03:27;;;;;;;3.92;2.95;;;;;;;;;;4977630;28;20059;-61
2022/04/15 11:06:02;;;;;;;5.65;3.20;;;;;;;;;;4972484;28;20030;-61
2022/04/15 11:08:29;;;;;;;7.32;3.10;;;;;;;;;;4977236;28;20034;-61
2022/04/15 11:10:57;;;;;;;3.47;2.80;;;;;;;;;;4974443;28;20023;-62
2022/04/15 11:13:32;;;;;;;3.75;2.78;;;;;;;;;;4970836;28;20480;-62
2022/04/15 11:15:59;;;;;;;6.05;3.08;;;;;;;;;;4975309;28;20098;-61
2022/04/15 11:18:46;;;;;;;5.40;3.00;;;;;;;;;;4978308;28;20111;-61
2022/04/15 11:21:32;;;;;;;4.30;3.25;;;;;;;;;;4982584;28;20034;-62
2022/04/15 11:24:00;;;;;;;3.55;3.17;;;;;;;;;;4971494;28;20047;-62
2022/04/15 11:26:27;;;;;;;4.95;3.00;;;;;;;;;;4969761;28;20061;-62
2022/04/15 11:28:53;;;;;;;4.00;3.30;;;;;;;;;;4971620;28;20045;-61
2022/04/15 11:31:20;;;;;;;6.28;3.05;;;;;;;;;;4973108;28;20041;-62
2022/04/15 11:33:46;;;;;;;4.93;2.70;;;;;;;;;;5006492;28;20521;-61
2022/04/15 11:36:12;;;;;;;3.55;3.10;;;;;;;;;;4979203;28;20113;-62
2022/04/15 11:38:39;;;;;;;2.78;2.55;;;;;;;;;;4984135;28;20027;-62
2022/04/15 11:41:05;;;;;;;2.88;2.30;;;;;;;;;;4976605;28;20034;-62
2022/04/15 11:43:31;;;;;;;3.25;2.58;;;;;;;;;;4977747;28;20045;-62
2022/04/15 11:45:57;;;;;;;3.10;2.25;;;;;;;;;;4977374;28;20033;-62
2022/04/15 11:48:24;;;;;;;2.47;1.98;;;;;;;;;;4975705;28;20034;-62
2022/04/15 11:50:52;;;;;;;2.90;2.40;;;;;;;;;;4979823;28;20459;-62
2022/04/15 11:53:21;;;;;;;3.10;2.30;;;;;;;;;;4984692;28;20538;-61
2022/04/15 11:55:48;;;;;;;3.08;2.70;;;;;;;;;;4986173;28;20047;-62
2022/04/15 11:58:14;;;;;;;5.53;2.20;;;;;;;;;;4983065;28;20042;-62
2022/04/15 12:00:40;;;;;;;3.00;2.00;;;;;;;;;;4985889;28;20033;-62
2022/04/15 12:03:06;;;;;;;2.53;1.95;;;;;;;;;;4984987;28;20054;-62
2022/04/15 12:05:32;;;;;;;4.03;1.95;;;;;;;;;;4983137;28;20035;-62
2022/04/15 12:07:59;;;;;;;2.47;1.58;;;;;;;;;;4986830;28;20038;-62
2022/04/15 12:10:27;;;;;;;1.98;1.38;;;;;;;;;;4982157;28;20050;-64
2022/04/15 12:12:54;;;;;;;3.25;1.40;;;;;;;;;;4984800;28;20029;-61
2022/04/15 12:15:25;;;;;;;1.60;1.38;;;;;;;;;;4985385;28;20080;-62
2022/04/15 12:17:52;;;;;;;1.30;1.20;;;;;;;;;;4984207;28;20468;-62
2022/04/15 12:20:18;;;;;;;2.45;1.65;;;;;;;;;;4973864;28;20029;-61
2022/04/15 12:22:45;;;;;;;3.22;1.08;;;;;;;;;;4974834;28;20037;-62
2022/04/15 12:25:18;;;;;;;2.13;1.33;;;;;;;;;;4975343;28;20034;-62
2022/04/15 12:27:46;;;;;;;1.40;1.23;;;;;;;;;;4979785;28;20056;-61
2022/04/15 12:30:14;;;;;;;1.75;1.40;;;;;;;;;;4976378;28;20041;-62
2022/04/15 12:32:40;;;;;;;4.00;1.50;;;;;;;;;;4976751;28;20041;-62
2022/04/15 12:35:12;;;;;;;1.92;1.33;;;;;;;;;;4978295;28;20023;-63
2022/04/15 12:37:49;;;;;;;2.03;1.17;;;;;;;;;;4976332;28;20499;-63
2022/04/15 12:40:15;;;;;;;3.85;1.38;;;;;;;;;;4973656;28;20030;-62
2022/04/15 12:42:42;;;;;;;1.20;1.10;;;;;;;;;;4977775;28;20018;-62
2022/04/15 12:45:12;;;;;;;3.47;1.10;;;;;;;;;;4975555;28;20117;-66
2022/04/15 12:47:39;;;;;;;1.63;1.25;;;;;;;;;;4979194;28;20030;-61
2022/04/15 12:50:23;;;;;;;1.25;1.10;;;;;;;;;;4983854;28;20019;-62
2022/04/15 12:52:50;;;;;;;1.95;0.98;;;;;;;;;;4978271;28;20062;-62
2022/04/15 12:55:30;;;;;;;3.25;1.45;;;;;;;;;;4972567;28;20064;-62
2022/04/15 12:57:57;;;;;;;1.23;1.10;;;;;;;;;;4994942;28;20030;-62
2022/04/15 13:00:23;;;;;;;1.58;1.10;;;;;;;;;;4974121;28;20031;-61
2022/04/15 13:02:49;;;;;;;1.60;1.10;;;;;;;;;;4975894;28;20034;-61
2022/04/15 13:05:15;;;;;;;3.75;1.10;;;;;;;;;;4977434;28;20046;-63
2022/04/15 13:07:42;;;;;;;1.58;1.10;;;;;;;;;;4974727;28;20067;-61
2022/04/15 13:10:09;;;;;;;0.93;0.85;;;;;;;;;;4978756;28;20513;-61
2022/04/15 13:12:35;;;;;;;1.27;1.10;;;;;;;;;;4982401;28;20061;-62
2022/04/15 13:15:01;;;;;;;0.82;0.73;;;;;;;;;;4983520;28;20053;-61
2022/04/15 13:17:27;;;;;;;1.00;0.70;;;;;;;;;;4985763;28;20025;-61
2022/04/15 13:19:54;;;;;;;1.33;0.90;;;;;;;;;;4980445;28;20430;-61
2022/04/15 13:22:20;;;;;;;0.68;0.60;;;;;;;;;;4980712;28;20044;-62
2022/04/15 13:24:46;;;;;;;3.38;1.50;;;;;;;;;;4979564;28;20525;-61
2022/04/15 13:27:12;;;;;;;4.13;1.02;;;;;;;;;;4979142;28;20031;-61
2022/04/15 13:29:38;;;;;;;0.70;0.68;;;;;;;;;;4974746;28;20483;-62
2022/04/15 13:32:06;;;;;;;1.40;1.10;;;;;;;;;;4982820;28;20022;-61
2022/04/15 13:34:33;;;;;;;1.55;1.05;;;;;;;;;;4983069;28;20441;-62
2022/04/15 13:37:03;;;;;;;1.67;1.20;;;;;;;;;;4985062;28;20067;-61
2022/04/15 13:39:33;;;;;;;2.15;1.48;;;;;;;;;;4982473;28;20408;-62
2022/04/15 13:42:01;;;;;;;2.42;1.40;;;;;;;;;;5007260;28;20027;-62
2022/04/15 13:44:27;;;;;;;1.90;1.30;;;;;;;;;;4976484;28;20640;-62
2022/04/15 13:46:53;;;;;;;1.17;0.90;;;;;;;;;;5005503;28;21528;-62
2022/04/15 13:49:19;;;;;;;2.13;1.00;;;;;;;;;;4978091;28;20488;-62
2022/04/15 13:51:46;;;;;;;1.77;1.00;;;;;;;;;;4979064;28;20060;-62
2022/04/15 13:56:57;;;;;;;2.67;1.60;;;;;;;;;;4978376;28;20116;-62
2022/04/15 13:59:24;;;;;;;1.90;1.33;;;;;;;;;;4974010;28;20042;-62
2022/04/15 14:01:50;;;;;;;2.83;1.45;;;;;;;;;;4976545;28;20031;-62
2022/04/15 14:04:17;;;;;;;2.05;1.45;;;;;;;;;;4977171;28;20118;-62
2022/04/15 14:06:43;;;;;;;2.55;1.50;;;;;;;;;;4976855;28;20050;-62
2022/04/15 14:09:10;;;;;;;2.20;1.52;;;;;;;;;;4986474;28;20107;-62
2022/04/15 14:11:37;;;;;;;3.10;1.67;;;;;;;;;;4975471;28;20023;-62
2022/04/15 14:14:04;;;;;;;1.95;1.50;;;;;;;;;;4976456;28;20495;-62
2022/04/15 14:16:30;;;;;;;1.92;1.52;;;;;;;;;;4982983;28;20125;-62
2022/04/15 14:18:57;;;;;;;4.25;1.63;;;;;;;;;;4973652;28;20042;-62
2022/04/15 14:21:24;;;;;;;1.95;1.48;;;;;;;;;;4974073;28;20385;-62
2022/04/15 14:23:50;;;;;;;3.03;1.63;;;;;;;;;;4978315;28;20472;-62
2022/04/15 14:26:16;;;;;;;3.08;1.60;;;;;;;;;;4974559;28;20027;-62
2022/04/15 14:28:43;;;;;;;2.88;1.83;;;;;;;;;;4975606;28;20492;-62
2022/04/15 14:31:09;;;;;;;3.63;2.20;;;;;;;;;;4973111;28;20102;-62
2022/04/15 14:33:36;;;;;;;4.45;1.65;;;;;;;;;;4971984;28;20496;-62
2022/04/15 14:36:03;;;;;;;2.25;1.77;;;;;;;;;;4972370;28;20035;-62
2022/04/15 14:38:29;;;;;;;2.38;1.67;;;;;;;;;;4976194;28;20026;-62
2022/04/15 14:40:56;;;;;;;3.55;1.80;;;;;;;;;;4973668;28;20369;-62